createdAt,value
2018-08-19T00:02:10.402Z,11.28
2018-08-19T00:04:39.634Z,11.18
2018-08-19T00:07:08.690Z,11.15
2018-08-19T00:09:37.752Z,11.35
2018-08-19T00:12:07.295Z,11.60
2018-08-19T00:14:36.910Z,10.98
2018-08-19T00:17:06.195Z,11.03
2018-08-19T00:19:35.923Z,11.65
2018-08-19T00:22:05.004Z,11.12
2018-08-19T00:24:34.044Z,11.60
2018-08-19T00:27:03.261Z,11.45
2018-08-19T00:29:37.010Z,10.55
2018-08-19T00:32:06.654Z,10.88
2018-08-19T00:34:36.142Z,11.97
2018-08-19T00:37:06.327Z,11.43
2018-08-19T00:39:35.904Z,10.58
2018-08-19T00:42:06.372Z,11.30
2018-08-19T00:44:35.678Z,11.30
2018-08-19T00:47:05.051Z,11.70
2018-08-19T00:49:34.098Z,11.38
2018-08-19T00:52:03.629Z,11.45
2018-08-19T00:54:33.318Z,11.93
2018-08-19T00:57:03.597Z,11.70
2018-08-19T00:59:33.288Z,11.12
2018-08-19T01:02:02.607Z,12.15
2018-08-19T01:04:31.688Z,12.65
2018-08-19T01:07:01.795Z,12.53
2018-08-19T01:09:32.135Z,11.57
2018-08-19T01:12:01.347Z,11.60
2018-08-19T01:14:30.278Z,13.22
2018-08-19T01:16:59.403Z,12.30
2018-08-19T01:19:29.072Z,11.80
2018-08-19T01:21:58.159Z,12.35
2018-08-19T01:24:27.458Z,11.93
2018-08-19T01:26:56.455Z,12.45
2018-08-19T01:29:34.722Z,12.68
2018-08-19T01:32:09.887Z,12.23
2018-08-19T01:34:39.607Z,12.55
2018-08-19T01:37:09.222Z,12.68
2018-08-19T01:39:38.612Z,12.58
2018-08-19T01:42:08.349Z,12.98
2018-08-19T01:44:37.250Z,12.60
2018-08-19T01:47:06.149Z,12.33
2018-08-19T01:49:35.615Z,12.65
2018-08-19T01:52:05.675Z,12.37
2018-08-19T01:54:34.763Z,13.35
2018-08-19T01:57:03.899Z,13.20
2018-08-19T01:59:34.319Z,12.85
2018-08-19T02:02:04.627Z,12.80
2018-08-19T02:04:35.427Z,12.85
2018-08-19T02:07:04.439Z,12.40
2018-08-19T02:09:34.166Z,12.43
2018-08-19T02:12:03.269Z,11.97
2018-08-19T02:14:32.247Z,12.53
2018-08-19T02:17:02.217Z,11.90
2018-08-19T02:19:31.330Z,11.35
2018-08-19T02:22:00.428Z,12.25
2018-08-19T02:24:29.939Z,12.50
2018-08-19T02:26:59.035Z,13.93
2018-08-19T02:29:35.111Z,14.13
2018-08-19T02:32:05.479Z,23.05
2018-08-19T02:34:36.359Z,33.73
2018-08-19T02:37:10.751Z,48.08
2018-08-19T02:39:41.726Z,56.48
2018-08-19T02:42:26.229Z,39.90
2018-08-19T02:45:01.670Z,58.58
2018-08-19T02:47:31.263Z,57.90
2018-08-19T02:50:00.244Z,49.38
2018-08-19T02:52:31.645Z,51.40
2018-08-19T02:55:02.079Z,47.83
2018-08-19T02:57:31.908Z,43.05
2018-08-19T03:00:01.730Z,44.15
2018-08-19T03:02:34.446Z,43.15
2018-08-19T03:05:05.930Z,39.42
2018-08-19T03:07:37.068Z,46.05
2018-08-19T03:10:09.139Z,64.45
2018-08-19T03:12:38.542Z,60.08
2018-08-19T03:15:10.716Z,54.45
2018-08-19T03:17:40.519Z,56.63
2018-08-19T03:20:11.776Z,55.15
2018-08-19T03:22:40.830Z,51.65
2018-08-19T03:25:10.387Z,44.95
2018-08-19T03:27:40.407Z,47.62
2018-08-19T03:30:14.302Z,52.53
2018-08-19T03:32:49.160Z,43.20
2018-08-19T03:35:19.430Z,32.25
2018-08-19T03:37:51.277Z,31.75
2018-08-19T03:40:20.404Z,38.38
2018-08-19T03:42:49.456Z,41.45
2018-08-19T03:45:20.323Z,50.48
2018-08-19T03:47:50.527Z,68.85
2018-08-19T03:50:22.822Z,55.92
2018-08-19T03:52:53.292Z,45.63
2018-08-19T03:55:30.450Z,44.08
2018-08-19T03:58:04.578Z,37.33
2018-08-19T04:00:35.307Z,32.53
2018-08-19T04:03:13.443Z,25.60
2018-08-19T04:05:46.437Z,23.92
2018-08-19T04:08:16.034Z,27.48
2018-08-19T04:10:46.186Z,32.63
2018-08-19T04:13:36.111Z,41.40
2018-08-19T04:16:05.927Z,61.55
2018-08-19T04:18:39.271Z,44.13
2018-08-19T04:21:09.628Z,25.10
2018-08-19T04:23:41.377Z,26.23
2018-08-19T04:26:10.306Z,19.92
2018-08-19T04:28:40.538Z,15.60
2018-08-19T04:31:15.020Z,15.13
2018-08-19T04:33:45.556Z,15.13
2018-08-19T04:36:16.396Z,16.25
2018-08-19T04:38:45.652Z,15.80
2018-08-19T04:41:14.835Z,14.65
2018-08-19T04:43:44.866Z,16.82
2018-08-19T04:46:13.984Z,16.60
2018-08-19T04:48:45.057Z,17.25
2018-08-19T04:51:14.409Z,14.68
2018-08-19T04:53:43.666Z,14.45
2018-08-19T04:56:13.071Z,15.40
2018-08-19T04:58:42.206Z,11.33
2018-08-19T05:01:12.804Z,10.15
2018-08-19T05:03:45.166Z,10.18
2018-08-19T05:06:14.124Z,10.18
2018-08-19T05:08:43.758Z,7.47
2018-08-19T05:11:12.983Z,6.05
2018-08-19T05:13:42.578Z,6.33
2018-08-19T05:16:12.030Z,6.35
2018-08-19T05:18:44.703Z,6.62
2018-08-19T05:21:14.410Z,8.23
2018-08-19T05:23:43.271Z,7.22
2018-08-19T05:26:13.427Z,8.33
2018-08-19T05:28:45.457Z,9.98
2018-08-19T05:31:14.652Z,8.58
2018-08-19T05:33:44.056Z,9.18
2018-08-19T05:36:13.685Z,9.75
2018-08-19T05:38:43.836Z,9.80
2018-08-19T05:41:12.785Z,9.08
2018-08-19T05:43:41.562Z,7.45
2018-08-19T05:46:10.623Z,7.05
2018-08-19T05:48:39.551Z,7.60
2018-08-19T05:51:08.854Z,7.83
2018-08-19T05:53:42.010Z,7.80
2018-08-19T05:56:10.827Z,8.03
2018-08-19T05:58:42.059Z,7.85
2018-08-19T06:01:12.426Z,7.62
2018-08-19T06:03:41.265Z,8.50
2018-08-19T06:06:10.121Z,8.20
2018-08-19T06:08:39.083Z,8.33
2018-08-19T06:11:07.843Z,8.15
2018-08-19T06:13:36.712Z,9.33
2018-08-19T06:16:06.339Z,10.18
2018-08-19T06:18:35.893Z,9.60
2018-08-19T06:21:05.586Z,9.98
2018-08-19T06:23:35.017Z,10.65
2018-08-19T06:26:03.954Z,11.50
2018-08-19T06:28:33.540Z,10.98
2018-08-19T06:31:03.031Z,10.85
2018-08-19T06:33:32.469Z,10.35
2018-08-19T06:36:01.455Z,10.70
2018-08-19T06:38:30.855Z,10.50
2018-08-19T06:40:59.902Z,11.30
2018-08-19T06:43:28.732Z,11.88
2018-08-19T06:45:57.519Z,11.45
2018-08-19T06:48:27.139Z,10.82
2018-08-19T06:50:56.180Z,11.30
2018-08-19T06:53:30.646Z,10.70
2018-08-19T06:56:00.291Z,9.95
2018-08-19T06:58:29.485Z,12.60
2018-08-19T07:00:58.223Z,11.28
2018-08-19T07:03:27.394Z,12.80
2018-08-19T07:06:11.829Z,12.35
2018-08-19T07:08:41.498Z,11.40
2018-08-19T07:11:10.415Z,10.50
2018-08-19T07:13:39.935Z,10.85
2018-08-19T07:16:09.118Z,9.83
2018-08-19T07:18:37.944Z,9.55
2018-08-19T07:21:07.007Z,9.80
2018-08-19T07:23:36.195Z,10.08
2018-08-19T07:26:05.284Z,10.23
2018-08-19T07:28:34.416Z,10.05
2018-08-19T07:31:03.085Z,11.20
2018-08-19T07:33:32.275Z,11.55
2018-08-19T07:36:01.106Z,11.93
2018-08-19T07:38:30.255Z,11.48
2018-08-19T07:40:59.284Z,12.35
2018-08-19T07:43:28.690Z,11.50
2018-08-19T07:45:57.559Z,10.78
2018-08-19T07:48:27.277Z,11.18
2018-08-19T07:50:56.412Z,11.20
2018-08-19T07:53:25.293Z,9.75
2018-08-19T07:55:54.455Z,8.60
2018-08-19T07:58:34.424Z,7.78
2018-08-19T08:01:03.302Z,8.43
2018-08-19T08:03:32.208Z,8.40
2018-08-19T08:06:01.519Z,8.75
2018-08-19T08:08:31.121Z,8.63
2018-08-19T08:11:00.036Z,7.53
2018-08-19T08:13:29.240Z,7.03
2018-08-19T08:15:58.805Z,6.58
2018-08-19T08:18:27.803Z,6.72
2018-08-19T08:21:02.132Z,6.62
2018-08-19T08:23:31.122Z,6.53
2018-08-19T08:25:59.868Z,6.22
2018-08-19T08:28:29.191Z,6.30
2018-08-19T08:30:58.188Z,4.47
2018-08-19T08:33:27.188Z,4.37
2018-08-19T08:35:57.134Z,4.15
2018-08-19T08:38:25.982Z,5.47
2018-08-19T08:40:55.189Z,4.45
2018-08-19T08:43:24.443Z,3.70
2018-08-19T08:45:55.763Z,3.25
2018-08-19T08:48:25.585Z,2.42
2018-08-19T08:50:54.451Z,2.87
2018-08-19T08:53:26.755Z,2.52
2018-08-19T08:55:55.831Z,1.40
2018-08-19T08:58:24.825Z,1.50
2018-08-19T09:00:54.083Z,0.88
2018-08-19T09:03:23.403Z,2.47
2018-08-19T09:05:52.304Z,2.08
2018-08-19T09:08:21.215Z,2.40
2018-08-19T09:10:50.010Z,2.95
2018-08-19T09:13:19.100Z,2.42
2018-08-19T09:15:48.558Z,1.77
2018-08-19T09:18:17.559Z,0.50
2018-08-19T09:20:46.716Z,0.88
2018-08-19T09:23:16.685Z,1.60
2018-08-19T09:25:45.752Z,1.10
2018-08-19T09:28:14.811Z,1.20
2018-08-19T09:30:44.836Z,1.10
2018-08-19T09:33:14.364Z,0.90
2018-08-19T09:35:43.959Z,0.88
2018-08-19T09:38:19.307Z,0.90
2018-08-19T09:40:48.386Z,0.80
2018-08-19T09:43:17.887Z,0.90
2018-08-19T09:45:47.310Z,0.70
2018-08-19T09:48:16.628Z,0.82
2018-08-19T09:50:45.819Z,0.70
2018-08-19T09:53:15.257Z,0.70
2018-08-19T09:55:45.423Z,0.78
2018-08-19T09:58:20.811Z,0.70
2018-08-19T10:00:55.185Z,0.70
2018-08-19T10:03:24.271Z,0.60
2018-08-19T10:05:53.631Z,0.70
2018-08-19T10:08:23.278Z,0.60
2018-08-19T10:10:52.762Z,0.57
2018-08-19T10:13:21.758Z,0.60
2018-08-19T10:15:50.687Z,0.53
2018-08-19T10:18:19.715Z,0.60
2018-08-19T10:20:48.678Z,0.60
2018-08-19T10:23:17.547Z,0.60
2018-08-19T10:25:46.890Z,0.50
2018-08-19T10:28:18.664Z,0.60
2018-08-19T10:30:55.774Z,0.50
2018-08-19T10:33:24.598Z,0.40
2018-08-19T10:35:53.339Z,0.50
2018-08-19T10:38:22.220Z,0.50
2018-08-19T10:40:56.394Z,0.50
2018-08-19T10:43:26.101Z,0.60
2018-08-19T10:45:55.687Z,0.50
2018-08-19T10:48:24.931Z,0.50
2018-08-19T10:50:53.851Z,0.60
2018-08-19T10:53:28.382Z,0.50
2018-08-19T10:56:01.060Z,0.60
2018-08-19T10:58:30.035Z,0.55
2018-08-19T11:00:59.417Z,0.50
2018-08-19T11:03:29.108Z,0.65
2018-08-19T11:05:58.018Z,0.70
2018-08-19T11:08:26.987Z,0.60
2018-08-19T11:10:56.969Z,0.62
2018-08-19T11:13:26.375Z,0.50
2018-08-19T11:15:57.407Z,0.60
2018-08-19T11:18:29.286Z,0.60
2018-08-19T11:21:02.285Z,0.50
2018-08-19T11:23:31.048Z,0.60
2018-08-19T11:26:00.037Z,0.60
2018-08-19T11:28:40.107Z,0.60
2018-08-19T11:31:16.452Z,0.50
2018-08-19T11:33:46.414Z,0.68
2018-08-19T11:36:16.090Z,0.68
2018-08-19T11:38:48.684Z,0.65
2018-08-19T11:41:17.715Z,0.60
2018-08-19T11:43:48.289Z,0.70
2018-08-19T11:46:17.164Z,0.75
2018-08-19T11:48:46.479Z,1.02
2018-08-19T11:51:15.620Z,0.78
2018-08-19T11:53:44.695Z,1.00
2018-08-19T11:56:13.772Z,1.05
2018-08-19T11:58:47.098Z,0.70
2018-08-19T12:01:18.036Z,0.90
2018-08-19T12:04:12.390Z,1.00
2018-08-19T12:06:41.581Z,0.70
2018-08-19T12:09:11.363Z,0.75
2018-08-19T12:11:41.948Z,0.80
2018-08-19T12:14:13.466Z,0.68
2018-08-19T12:16:49.912Z,1.25
2018-08-19T12:19:20.601Z,0.65
2018-08-19T12:21:58.599Z,0.60
2018-08-19T12:24:33.604Z,0.65
2018-08-19T12:27:04.791Z,0.70
2018-08-19T12:29:34.762Z,0.95
2018-08-19T12:32:37.683Z,0.70
2018-08-19T12:35:06.668Z,0.70
2018-08-19T12:37:35.799Z,0.70
2018-08-19T12:40:05.813Z,0.70
2018-08-19T12:42:44.458Z,0.80
2018-08-19T12:45:13.716Z,0.90
2018-08-19T12:47:42.875Z,0.70
2018-08-19T12:50:16.079Z,0.62
2018-08-19T12:52:45.101Z,0.70
2018-08-19T12:55:16.634Z,0.70
2018-08-19T12:57:46.228Z,0.70
2018-08-19T13:00:31.725Z,0.90
2018-08-19T13:03:01.693Z,0.90
2018-08-19T13:05:30.527Z,1.25
2018-08-19T13:08:00.354Z,1.22
2018-08-19T13:10:36.918Z,2.33
2018-08-19T13:13:06.930Z,1.05
2018-08-19T13:15:35.922Z,1.17
2018-08-19T13:18:04.957Z,0.90
2018-08-19T13:20:34.125Z,1.20
2018-08-19T13:23:04.489Z,0.85
2018-08-19T13:25:34.462Z,0.90
2018-08-19T13:28:03.358Z,1.35
2018-08-19T13:30:32.218Z,1.80
2018-08-19T13:33:01.499Z,1.77
2018-08-19T13:35:31.050Z,1.55
2018-08-19T13:37:59.946Z,1.87
2018-08-19T13:40:29.103Z,1.67
2018-08-19T13:42:58.222Z,1.62
2018-08-19T13:45:27.442Z,2.30
2018-08-19T13:47:57.578Z,3.80
2018-08-19T13:50:26.576Z,3.87
2018-08-19T13:52:55.566Z,2.90
2018-08-19T13:55:24.265Z,2.75
2018-08-19T13:57:53.415Z,2.65
2018-08-19T14:00:23.966Z,2.12
2018-08-19T14:02:53.123Z,2.10
2018-08-19T14:05:22.394Z,2.40
2018-08-19T14:07:52.613Z,2.33
2018-08-19T14:10:21.539Z,1.50
2018-08-19T14:12:51.208Z,2.27
2018-08-19T14:15:20.304Z,1.40
2018-08-19T14:17:50.042Z,2.50
2018-08-19T14:20:19.115Z,2.80
2018-08-19T14:22:48.387Z,2.22
2018-08-19T14:25:17.418Z,1.52
2018-08-19T14:27:47.114Z,1.70
2018-08-19T14:30:16.123Z,2.20
2018-08-19T14:32:46.846Z,1.60
2018-08-19T14:35:16.787Z,1.37
2018-08-19T14:37:45.474Z,1.95
2018-08-19T14:40:16.777Z,2.47
2018-08-19T14:42:46.393Z,1.45
2018-08-19T14:45:15.530Z,1.12
2018-08-19T14:47:45.209Z,1.30
2018-08-19T14:50:16.208Z,1.20
2018-08-19T14:52:45.299Z,1.30
2018-08-19T14:55:14.251Z,1.42
2018-08-19T14:57:43.131Z,1.12
2018-08-19T15:00:14.106Z,1.30
2018-08-19T15:02:43.294Z,1.20
2018-08-19T15:05:16.287Z,1.27
2018-08-19T15:07:45.826Z,1.50
2018-08-19T15:10:17.976Z,2.40
2018-08-19T15:12:47.950Z,1.40
2018-08-19T15:15:17.058Z,2.10
2018-08-19T15:18:02.092Z,1.87
2018-08-19T15:20:33.136Z,1.40
2018-08-19T15:23:16.827Z,1.35
2018-08-19T15:25:46.231Z,1.10
2018-08-19T15:28:15.694Z,1.47
2018-08-19T15:30:44.635Z,0.95
2018-08-19T15:33:14.710Z,1.00
2018-08-19T15:35:44.034Z,1.10
2018-08-19T15:38:14.271Z,1.17
2018-08-19T15:40:45.005Z,1.15
2018-08-19T15:43:14.376Z,1.30
2018-08-19T15:45:44.523Z,1.27
2018-08-19T15:48:13.597Z,1.22
2018-08-19T15:50:42.610Z,1.72
2018-08-19T15:53:12.112Z,1.20
2018-08-19T15:55:41.112Z,1.90
2018-08-19T15:58:10.383Z,1.42
2018-08-19T16:00:41.180Z,1.55
2018-08-19T16:03:11.167Z,1.75
2018-08-19T16:05:40.057Z,1.52
2018-08-19T16:08:09.302Z,1.50
2018-08-19T16:10:38.163Z,1.80
2018-08-19T16:13:09.253Z,1.25
2018-08-19T16:15:39.398Z,1.67
2018-08-19T16:18:08.762Z,1.77
2018-08-19T16:20:37.890Z,2.22
2018-08-19T16:23:06.957Z,2.20
2018-08-19T16:25:36.088Z,2.25
2018-08-19T16:28:05.831Z,1.85
2018-08-19T16:30:34.742Z,2.10
2018-08-19T16:33:03.667Z,2.15
2018-08-19T16:35:32.706Z,1.62
2018-08-19T16:38:02.143Z,1.45
2018-08-19T16:40:31.320Z,1.55
2018-08-19T16:43:00.218Z,1.00
2018-08-19T16:45:29.757Z,1.47
2018-08-19T16:47:58.906Z,1.65
2018-08-19T16:50:27.874Z,1.52
2018-08-19T16:52:57.114Z,1.65
2018-08-19T16:55:25.848Z,1.70
2018-08-19T16:57:54.981Z,1.20
2018-08-19T17:00:24.207Z,1.20
2018-08-19T17:02:53.320Z,1.80
2018-08-19T17:05:31.567Z,1.30
2018-08-19T17:08:00.763Z,1.32
2018-08-19T17:10:30.243Z,1.57
2018-08-19T17:13:00.254Z,1.40
2018-08-19T17:15:30.064Z,2.00
2018-08-19T17:17:59.723Z,1.47
2018-08-19T17:20:29.730Z,1.47
2018-08-19T17:22:58.557Z,1.67
2018-08-19T17:25:27.866Z,1.85
2018-08-19T17:27:57.147Z,1.65
2018-08-19T17:30:26.141Z,1.60
2018-08-19T17:33:00.577Z,2.17
2018-08-19T17:35:30.218Z,2.72
2018-08-19T17:38:00.303Z,3.25
2018-08-19T17:40:30.623Z,2.25
2018-08-19T17:42:59.852Z,1.70
2018-08-19T17:45:28.751Z,1.72
2018-08-19T17:47:57.754Z,1.42
2018-08-19T17:50:27.919Z,1.57
2018-08-19T17:52:59.172Z,1.70
2018-08-19T17:55:28.268Z,1.98
2018-08-19T17:57:58.590Z,1.60
2018-08-19T18:00:27.780Z,1.30
2018-08-19T18:02:56.686Z,1.62
2018-08-19T18:05:25.536Z,1.30
2018-08-19T18:07:55.496Z,1.60
2018-08-19T18:10:24.907Z,1.55
2018-08-19T18:12:54.097Z,1.35
2018-08-19T18:15:23.428Z,1.37
2018-08-19T18:17:58.463Z,2.00
2018-08-19T18:20:30.436Z,1.90
2018-08-19T18:23:00.430Z,1.15
2018-08-19T18:25:29.591Z,1.60
2018-08-19T18:27:58.723Z,1.67
2018-08-19T18:30:28.545Z,1.67
2018-08-19T18:32:57.327Z,1.42
2018-08-19T18:35:26.622Z,1.30
2018-08-19T18:37:55.566Z,1.95
2018-08-19T18:40:31.315Z,2.00
2018-08-19T18:43:00.923Z,3.65
2018-08-19T18:45:30.147Z,3.90
2018-08-19T18:48:03.838Z,4.25
2018-08-19T18:50:32.937Z,4.03
2018-08-19T18:53:02.166Z,4.85
2018-08-19T18:55:31.123Z,2.92
2018-08-19T18:58:00.787Z,3.72
2018-08-19T19:00:30.099Z,3.80
2018-08-19T19:03:00.666Z,4.45
2018-08-19T19:05:39.751Z,3.60
2018-08-19T19:08:11.444Z,3.00
2018-08-19T19:10:43.944Z,4.60
2018-08-19T19:13:13.375Z,2.42
2018-08-19T19:15:42.391Z,2.25
2018-08-19T19:18:13.398Z,1.92
2018-08-19T19:20:49.584Z,3.20
2018-08-19T19:23:21.914Z,2.67
2018-08-19T19:25:51.804Z,2.67
2018-08-19T19:28:20.854Z,2.20
2018-08-19T19:30:53.893Z,2.17
2018-08-19T19:33:24.294Z,2.17
2018-08-19T19:35:53.102Z,1.90
2018-08-19T19:38:22.631Z,2.37
2018-08-19T19:40:52.052Z,2.50
2018-08-19T19:43:22.731Z,1.77
2018-08-19T19:45:53.782Z,4.83
2018-08-19T19:48:22.970Z,2.12
2018-08-19T19:50:51.970Z,2.47
2018-08-19T19:53:20.998Z,2.30
2018-08-19T19:55:50.462Z,3.45
2018-08-19T19:58:20.515Z,2.65
2018-08-19T20:00:55.144Z,2.00
2018-08-19T20:03:24.832Z,3.02
2018-08-19T20:05:53.919Z,2.17
2018-08-19T20:08:25.928Z,2.92
2018-08-19T20:10:54.770Z,3.35
2018-08-19T20:13:23.671Z,2.92
2018-08-19T20:15:52.759Z,2.85
2018-08-19T20:18:22.586Z,2.10
2018-08-19T20:20:53.299Z,2.27
2018-08-19T20:23:26.048Z,2.75
2018-08-19T20:25:55.967Z,2.27
2018-08-19T20:28:24.974Z,2.35
2018-08-19T20:30:53.693Z,2.70
2018-08-19T20:33:29.583Z,2.60
2018-08-19T20:35:58.555Z,2.40
2018-08-19T20:38:27.446Z,1.87
2018-08-19T20:40:56.909Z,2.77
2018-08-19T20:43:26.851Z,2.00
2018-08-19T20:45:56.266Z,2.45
2018-08-19T20:48:25.178Z,2.47
2018-08-19T20:50:54.052Z,3.65
2018-08-19T20:53:23.131Z,2.45
2018-08-19T20:55:52.167Z,2.37
2018-08-19T20:58:21.974Z,1.80
2018-08-19T21:00:50.727Z,2.47
2018-08-19T21:03:19.869Z,1.87
2018-08-19T21:05:48.822Z,1.47
2018-08-19T21:08:18.957Z,1.52
2018-08-19T21:10:48.664Z,2.15
2018-08-19T21:13:19.444Z,1.85
2018-08-19T21:15:53.427Z,2.00
2018-08-19T21:18:22.802Z,2.37
2018-08-19T21:20:53.438Z,2.47
2018-08-19T21:23:22.371Z,1.80
2018-08-19T21:25:56.296Z,2.50
2018-08-19T21:28:25.245Z,2.98
2018-08-19T21:30:54.525Z,2.80
2018-08-19T21:33:23.719Z,2.20
2018-08-19T21:35:54.743Z,2.12
2018-08-19T21:38:23.681Z,2.00
2018-08-19T21:40:57.102Z,3.00
2018-08-19T21:43:28.207Z,3.75
2018-08-19T21:45:57.821Z,4.90
2018-08-19T21:48:26.727Z,4.60
2018-08-19T21:50:55.926Z,5.28
2018-08-19T21:53:24.724Z,5.47
2018-08-19T21:55:54.182Z,5.40
2018-08-19T21:58:23.289Z,5.28
2018-08-19T22:00:58.898Z,6.30
2018-08-19T22:03:33.122Z,6.08
2018-08-19T22:06:06.383Z,6.15
2018-08-19T22:08:35.353Z,6.35
2018-08-19T22:11:04.439Z,6.72
2018-08-19T22:13:33.502Z,11.40
2018-08-19T22:16:03.065Z,7.53
2018-08-19T22:18:32.474Z,9.10
2018-08-19T22:21:10.964Z,7.33
2018-08-19T22:23:43.370Z,6.45
2018-08-19T22:26:14.620Z,7.53
2018-08-19T22:28:44.523Z,7.17
2018-08-19T22:31:24.575Z,7.45
2018-08-19T22:33:55.589Z,7.70
2018-08-19T22:36:25.290Z,7.65
2018-08-19T22:38:54.878Z,7.83
2018-08-19T22:41:25.254Z,6.97
2018-08-19T22:43:55.657Z,7.67
2018-08-19T22:46:25.018Z,8.00
2018-08-19T22:48:55.138Z,8.78
2018-08-19T22:51:24.665Z,8.53
2018-08-19T22:53:55.660Z,8.00
2018-08-19T22:56:24.365Z,7.80
2018-08-19T22:58:53.499Z,7.35
2018-08-19T23:01:27.137Z,6.65
2018-08-19T23:04:01.646Z,7.67
2018-08-19T23:06:31.382Z,7.25
2018-08-19T23:09:00.883Z,6.35
2018-08-19T23:11:35.787Z,6.62
2018-08-19T23:14:16.167Z,5.53
2018-08-19T23:16:45.221Z,5.60
2018-08-19T23:19:13.866Z,6.08
2018-08-19T23:21:42.771Z,6.10
2018-08-19T23:24:11.906Z,5.75
2018-08-19T23:26:41.075Z,5.35
2018-08-19T23:29:10.154Z,5.67
2018-08-19T23:31:39.116Z,4.95
2018-08-19T23:34:08.228Z,5.72
2018-08-19T23:36:36.926Z,5.83
2018-08-19T23:39:08.015Z,6.15
2018-08-19T23:41:37.183Z,5.95
2018-08-19T23:44:06.291Z,5.80
2018-08-19T23:46:35.307Z,5.85
2018-08-19T23:49:04.399Z,6.22
2018-08-19T23:51:33.683Z,5.90
2018-08-19T23:54:03.887Z,6.58
2018-08-19T23:56:33.182Z,6.58
2018-08-19T23:59:02.582Z,7.10
